createdAt,value
2017-12-21T00:03:02.806Z,-3.10
2017-12-21T00:05:33.164Z,-3.40
2017-12-21T00:10:28.474Z,-3.70
2017-12-21T00:12:56.109Z,-3.50
2017-12-21T00:15:23.725Z,-3.30
2017-12-21T00:17:51.414Z,-3.40
2017-12-21T00:20:19.040Z,-3.50
2017-12-21T00:22:47.491Z,-3.60
2017-12-21T00:25:15.191Z,-3.60
2017-12-21T00:27:42.819Z,-3.60
2017-12-21T00:30:10.444Z,-3.40
2017-12-21T00:32:38.132Z,-3.50
2017-12-21T00:35:05.765Z,-3.40
2017-12-21T00:37:33.383Z,-3.30
2017-12-21T00:40:01.069Z,-3.40
2017-12-21T00:42:28.696Z,-3.30
2017-12-21T00:47:25.221Z,-3.40
2017-12-21T00:49:52.851Z,-3.70
2017-12-21T00:52:20.471Z,-3.70
2017-12-21T00:54:54.783Z,-3.80
2017-12-21T00:57:22.415Z,-4.00
2017-12-21T00:59:50.046Z,-4.40
2017-12-21T01:02:17.728Z,-4.60
2017-12-21T01:04:45.350Z,-4.50
2017-12-21T01:07:12.987Z,-4.30
2017-12-21T01:09:40.670Z,-4.20
2017-12-21T01:12:08.302Z,-4.10
2017-12-21T01:17:03.610Z,-3.90
2017-12-21T01:19:31.246Z,-3.80
2017-12-21T01:21:58.868Z,-3.60
2017-12-21T01:24:27.502Z,-3.60
2017-12-21T01:29:36.271Z,-3.00
2017-12-21T01:32:07.593Z,-3.90
2017-12-21T01:34:35.382Z,-3.80
2017-12-21T01:37:06.798Z,-3.70
2017-12-21T01:39:32.838Z,-3.60
2017-12-21T01:42:00.458Z,-3.60
2017-12-21T01:44:28.144Z,-3.60
2017-12-21T01:46:56.698Z,-3.60
2017-12-21T01:49:24.324Z,-3.60
2017-12-21T01:51:52.399Z,-3.80
2017-12-21T01:54:20.027Z,-3.80
2017-12-21T01:56:47.656Z,-4.10
2017-12-21T01:59:15.347Z,-3.90
2017-12-21T02:01:42.971Z,-3.70
2017-12-21T02:04:10.590Z,-3.60
2017-12-21T02:06:38.274Z,-3.50
2017-12-21T02:09:05.898Z,-3.40
2017-12-21T02:14:01.220Z,-3.70
2017-12-21T02:16:28.844Z,-3.70
2017-12-21T02:18:56.470Z,-3.80
2017-12-21T02:21:24.893Z,-3.90
2017-12-21T02:23:52.528Z,-4.00
2017-12-21T02:26:20.970Z,-3.80
2017-12-21T02:28:48.650Z,-3.60
2017-12-21T02:31:16.293Z,-3.70
2017-12-21T02:33:43.919Z,-3.90
2017-12-21T02:36:11.606Z,-3.80
2017-12-21T02:38:39.237Z,-3.80
2017-12-21T02:41:06.866Z,-3.80
2017-12-21T02:46:14.954Z,-2.60
2017-12-21T02:48:42.659Z,-3.60
2017-12-21T02:53:50.895Z,-2.80
2017-12-21T02:56:18.519Z,-3.10
2017-12-21T02:58:46.971Z,-2.90
2017-12-21T03:01:14.678Z,-2.80
2017-12-21T03:03:42.303Z,-3.00
2017-12-21T03:06:09.921Z,-3.20
2017-12-21T03:08:37.606Z,-3.50
2017-12-21T03:11:05.224Z,-3.50
2017-12-21T03:13:32.855Z,-3.40
2017-12-21T03:16:00.543Z,-3.20
2017-12-21T03:18:28.167Z,-3.10
2017-12-21T03:20:55.788Z,-3.00
2017-12-21T03:23:23.475Z,-3.10
2017-12-21T03:25:51.101Z,-3.00
2017-12-21T03:28:18.718Z,-2.90
2017-12-21T03:30:46.411Z,-3.20
2017-12-21T03:33:14.024Z,-3.40
2017-12-21T03:35:41.647Z,-3.50
2017-12-21T03:38:09.337Z,-3.60
2017-12-21T03:40:37.701Z,-3.60
2017-12-21T03:45:33.016Z,-3.30
2017-12-21T03:48:00.640Z,-3.30
2017-12-21T03:50:28.262Z,-3.20
2017-12-21T03:52:55.941Z,-3.20
2017-12-21T03:55:23.567Z,-3.10
2017-12-21T03:57:52.638Z,-3.00
2017-12-21T04:08:06.276Z,-2.70
2017-12-21T04:10:33.963Z,-2.60
2017-12-21T04:13:01.927Z,-2.50
2017-12-21T04:15:29.554Z,-2.40
2017-12-21T04:17:57.238Z,-2.40
2017-12-21T04:20:24.861Z,-2.40
2017-12-21T04:22:52.488Z,-2.50
2017-12-21T04:25:20.177Z,-2.50
2017-12-21T04:27:47.801Z,-2.50
2017-12-21T04:30:15.426Z,-2.50
2017-12-21T04:32:43.919Z,-2.50
2017-12-21T04:35:11.544Z,-2.50
2017-12-21T04:37:39.162Z,-2.50
2017-12-21T04:40:06.848Z,-2.40
2017-12-21T04:42:34.470Z,-2.50
2017-12-21T04:45:02.564Z,-2.60
2017-12-21T04:47:30.187Z,-3.00
2017-12-21T04:49:58.112Z,-3.00
2017-12-21T04:52:25.746Z,-3.10
2017-12-21T04:54:54.238Z,-3.10
2017-12-21T04:59:49.485Z,-2.90
2017-12-21T05:02:17.166Z,-2.80
2017-12-21T05:04:44.799Z,-2.70
2017-12-21T05:07:12.428Z,-2.70
2017-12-21T05:09:40.112Z,-2.70
2017-12-21T05:12:07.772Z,-2.80
2017-12-21T05:14:35.396Z,-3.00
2017-12-21T05:17:03.885Z,-2.90
2017-12-21T05:19:32.678Z,-2.80
2017-12-21T05:22:00.304Z,-2.70
2017-12-21T05:24:27.992Z,-2.70
2017-12-21T05:26:55.613Z,-2.60
2017-12-21T05:32:02.390Z,-2.60
2017-12-21T05:34:30.019Z,-2.50
2017-12-21T05:36:57.646Z,-2.50
2017-12-21T05:39:25.358Z,-2.40
2017-12-21T05:44:20.580Z,-2.50
2017-12-21T05:46:48.259Z,-2.50
2017-12-21T05:49:15.890Z,-2.40
2017-12-21T05:51:43.509Z,-2.30
2017-12-21T05:54:11.648Z,-2.20
2017-12-21T05:56:39.268Z,-2.30
2017-12-21T05:59:06.889Z,-2.30
2017-12-21T06:01:34.564Z,-2.30
2017-12-21T06:04:02.207Z,-2.40
2017-12-21T06:06:29.820Z,-2.40
2017-12-21T06:08:58.346Z,-2.40
2017-12-21T06:11:26.368Z,-2.40
2017-12-21T06:13:54.090Z,-2.30
2017-12-21T06:16:22.660Z,-2.30
2017-12-21T06:18:50.277Z,-2.40
2017-12-21T06:21:17.936Z,-2.60
2017-12-21T06:23:45.626Z,-2.50
2017-12-21T06:26:13.258Z,-2.30
2017-12-21T06:28:40.887Z,-2.20
2017-12-21T06:31:08.574Z,-2.20
2017-12-21T06:33:36.215Z,-2.30
2017-12-21T06:36:04.100Z,-2.20
2017-12-21T06:38:31.787Z,-2.10
2017-12-21T06:40:59.404Z,-2.10
2017-12-21T06:43:27.032Z,-2.10
2017-12-21T06:45:55.224Z,-2.00
2017-12-21T06:48:23.221Z,-2.10
2017-12-21T06:50:50.844Z,-2.00
2017-12-21T06:53:18.750Z,-1.90
2017-12-21T06:58:25.487Z,-1.80
2017-12-21T07:00:53.106Z,-1.70
2017-12-21T07:03:20.738Z,-1.60
2017-12-21T07:05:48.419Z,-1.60
2017-12-21T07:08:16.045Z,-1.70
2017-12-21T07:13:22.454Z,-2.30
2017-12-21T07:15:50.072Z,-2.30
2017-12-21T07:18:17.710Z,-2.30
2017-12-21T07:20:45.389Z,-2.10
2017-12-21T07:23:13.015Z,-2.00
2017-12-21T07:25:40.641Z,-2.00
2017-12-21T07:30:35.948Z,-2.10
2017-12-21T07:33:03.591Z,-2.10
2017-12-21T07:35:31.283Z,-2.10
2017-12-21T07:37:58.908Z,-2.20
2017-12-21T07:40:26.527Z,-2.10
2017-12-21T07:42:54.518Z,-2.00
2017-12-21T07:45:22.149Z,-2.00
2017-12-21T07:47:49.772Z,-2.00
2017-12-21T07:50:17.457Z,-2.10
2017-12-21T07:52:46.024Z,-2.00
2017-12-21T07:55:13.666Z,-1.90
2017-12-21T07:57:41.342Z,-2.00
2017-12-21T08:00:09.908Z,-2.10
2017-12-21T08:02:37.542Z,-2.10
2017-12-21T08:05:05.230Z,-2.00
2017-12-21T08:07:32.855Z,-1.90
2017-12-21T08:10:00.485Z,-1.90
2017-12-21T08:12:28.162Z,-1.90
2017-12-21T08:14:56.505Z,-2.00
2017-12-21T08:17:24.138Z,-2.10
2017-12-21T08:19:51.818Z,-2.10
2017-12-21T08:22:19.440Z,-2.00
2017-12-21T08:24:47.060Z,-1.90
2017-12-21T08:27:14.740Z,-1.90
2017-12-21T08:29:42.368Z,-1.80
2017-12-21T08:32:10.811Z,-1.80
2017-12-21T08:34:38.490Z,-1.60
2017-12-21T08:37:07.086Z,-1.70
2017-12-21T08:42:14.316Z,-1.70
2017-12-21T08:44:41.954Z,-1.50
2017-12-21T08:49:37.263Z,-1.10
2017-12-21T08:52:04.893Z,-1.20
2017-12-21T08:54:32.541Z,-1.10
2017-12-21T08:57:00.227Z,-1.00
2017-12-21T08:59:27.867Z,-1.00
2017-12-21T09:01:55.488Z,-1.00
2017-12-21T09:04:23.175Z,-1.00
2017-12-21T09:06:50.815Z,-0.90
2017-12-21T09:09:18.438Z,-0.90
2017-12-21T09:11:46.126Z,-0.80
2017-12-21T09:16:41.363Z,-0.70
2017-12-21T09:19:09.081Z,-0.60
2017-12-21T09:21:36.692Z,-0.50
2017-12-21T09:24:04.314Z,-0.40
2017-12-21T09:29:00.173Z,-0.50
2017-12-21T09:31:27.794Z,-0.40
2017-12-21T09:33:55.480Z,-0.40
2017-12-21T09:36:23.100Z,-0.30
2017-12-21T09:38:50.716Z,-0.10
2017-12-21T09:41:18.413Z,-0.10
2017-12-21T09:43:46.034Z,0.30
2017-12-21T09:46:13.666Z,1.00
2017-12-21T09:48:45.006Z,1.10
2017-12-21T09:51:12.636Z,0.90
2017-12-21T09:53:45.672Z,1.10
2017-12-21T09:56:13.289Z,1.30
2017-12-21T09:58:40.908Z,1.10
2017-12-21T10:03:49.673Z,0.90
2017-12-21T10:06:17.365Z,0.90
2017-12-21T10:08:44.976Z,0.80
2017-12-21T10:11:12.595Z,1.00
2017-12-21T10:13:41.247Z,1.10
2017-12-21T10:16:08.870Z,1.00
2017-12-21T10:18:36.502Z,1.00
2017-12-21T10:21:04.176Z,1.00
2017-12-21T10:23:31.790Z,1.10
2017-12-21T10:25:59.413Z,0.90
2017-12-21T10:28:27.574Z,0.80
2017-12-21T10:30:55.189Z,0.90
2017-12-21T10:33:22.808Z,1.00
2017-12-21T10:35:50.483Z,1.40
2017-12-21T10:38:18.105Z,1.60
2017-12-21T10:43:13.402Z,2.20
2017-12-21T10:45:41.011Z,2.90
2017-12-21T10:48:08.639Z,3.10
2017-12-21T10:50:36.315Z,3.50
2017-12-21T10:53:04.877Z,3.60
2017-12-21T10:55:32.494Z,3.60
2017-12-21T10:58:00.191Z,4.10
2017-12-21T11:00:27.811Z,3.80
2017-12-21T11:02:55.428Z,3.60
2017-12-21T11:07:50.711Z,3.20
2017-12-21T11:10:18.335Z,3.00
2017-12-21T11:12:46.004Z,2.60
2017-12-21T11:15:13.623Z,2.50
2017-12-21T11:20:08.917Z,1.90
2017-12-21T11:22:36.572Z,2.10
2017-12-21T11:27:43.634Z,1.60
2017-12-21T11:30:11.255Z,1.30
2017-12-21T11:35:06.900Z,1.70
2017-12-21T11:37:34.520Z,2.00
2017-12-21T11:40:02.142Z,2.30
2017-12-21T11:42:29.840Z,2.60
2017-12-21T11:44:57.452Z,2.60
2017-12-21T11:47:25.075Z,2.80
2017-12-21T11:49:52.752Z,2.90
2017-12-21T11:54:47.991Z,2.70
2017-12-21T11:57:15.658Z,2.90
2017-12-21T11:59:43.286Z,2.50
2017-12-21T12:02:10.907Z,2.50
2017-12-21T12:04:38.580Z,2.60
2017-12-21T12:07:06.199Z,2.70
2017-12-21T12:14:33.215Z,2.40
2017-12-21T12:17:00.828Z,2.70
2017-12-21T12:19:28.507Z,2.90
2017-12-21T12:21:56.132Z,3.10
2017-12-21T12:26:52.388Z,2.90
2017-12-21T12:29:20.006Z,2.40
2017-12-21T12:31:47.631Z,2.40
2017-12-21T12:34:15.307Z,2.30
2017-12-21T12:36:42.927Z,2.70
2017-12-21T12:39:10.546Z,2.50
2017-12-21T12:41:38.256Z,2.60
2017-12-21T12:44:05.844Z,2.70
2017-12-21T12:49:12.613Z,2.90
2017-12-21T12:51:40.232Z,3.30
2017-12-21T12:54:07.843Z,4.00
2017-12-21T12:56:35.548Z,4.30
2017-12-21T13:01:30.812Z,4.90
2017-12-21T13:03:58.484Z,5.10
2017-12-21T13:06:26.955Z,4.30
2017-12-21T13:08:54.580Z,4.10
2017-12-21T13:11:22.255Z,3.90
2017-12-21T13:13:49.878Z,4.20
2017-12-21T13:16:18.005Z,4.40
2017-12-21T13:18:45.675Z,4.60
2017-12-21T13:21:13.311Z,4.10
2017-12-21T13:23:40.922Z,4.50
2017-12-21T13:26:08.610Z,4.40
2017-12-21T13:28:36.227Z,4.50
2017-12-21T13:31:03.842Z,4.80
2017-12-21T13:33:31.524Z,4.70
2017-12-21T13:35:59.143Z,4.70
2017-12-21T13:40:55.299Z,4.00
2017-12-21T13:43:22.915Z,3.90
2017-12-21T13:45:50.535Z,3.90
2017-12-21T13:48:18.218Z,3.90
2017-12-21T13:50:45.843Z,4.00
2017-12-21T13:53:13.469Z,4.10
2017-12-21T13:55:41.161Z,4.20
2017-12-21T13:58:08.775Z,4.00
2017-12-21T14:03:15.539Z,3.80
2017-12-21T14:05:43.248Z,3.90
2017-12-21T14:08:10.860Z,3.80
2017-12-21T14:10:38.556Z,3.70
2017-12-21T14:13:06.190Z,3.60
2017-12-21T14:15:33.819Z,3.60
2017-12-21T14:18:01.505Z,3.50
2017-12-21T14:20:29.135Z,3.30
2017-12-21T14:22:56.741Z,3.10
2017-12-21T14:25:24.423Z,3.20
2017-12-21T14:27:52.036Z,3.30
2017-12-21T14:30:19.668Z,3.20
2017-12-21T14:32:47.352Z,3.20
2017-12-21T14:35:14.987Z,3.20
2017-12-21T14:40:11.090Z,3.30
2017-12-21T14:42:39.615Z,3.30
2017-12-21T14:45:07.235Z,3.30
2017-12-21T14:47:34.926Z,3.20
2017-12-21T14:50:02.545Z,3.20
2017-12-21T14:52:30.165Z,3.10
2017-12-21T14:54:57.843Z,3.10
2017-12-21T14:57:25.462Z,2.90
2017-12-21T15:02:20.756Z,2.70
2017-12-21T15:04:48.377Z,2.70
2017-12-21T15:07:15.999Z,2.70
2017-12-21T15:09:43.684Z,2.70
2017-12-21T15:12:11.304Z,2.90
2017-12-21T15:14:38.925Z,2.80
2017-12-21T15:17:06.599Z,2.90
2017-12-21T15:19:34.223Z,2.60
2017-12-21T15:22:01.854Z,2.40
2017-12-21T15:24:29.525Z,2.60
2017-12-21T15:26:57.148Z,2.70
2017-12-21T15:32:06.895Z,2.70
2017-12-21T15:34:34.580Z,2.70
2017-12-21T15:37:02.204Z,2.70
2017-12-21T15:39:31.535Z,2.70
2017-12-21T15:41:59.168Z,2.70
2017-12-21T15:44:27.071Z,2.70
2017-12-21T15:46:55.202Z,2.60
2017-12-21T15:49:22.844Z,2.50
2017-12-21T15:51:50.463Z,2.50
2017-12-21T15:54:18.152Z,2.60
2017-12-21T15:56:47.570Z,2.60
2017-12-21T15:59:15.207Z,2.50
2017-12-21T16:04:10.544Z,2.40
2017-12-21T16:06:38.165Z,2.40
2017-12-21T16:09:05.847Z,2.20
2017-12-21T16:11:34.284Z,2.30
2017-12-21T16:14:01.912Z,2.20
2017-12-21T16:16:29.585Z,2.20
2017-12-21T16:18:58.448Z,2.10
2017-12-21T16:21:26.069Z,2.00
2017-12-21T16:23:53.755Z,1.90
2017-12-21T16:26:21.372Z,2.00
2017-12-21T16:28:48.984Z,2.00
2017-12-21T16:31:16.685Z,1.70
2017-12-21T16:33:44.337Z,1.50
2017-12-21T16:36:12.752Z,1.60
2017-12-21T16:38:40.435Z,1.50
2017-12-21T16:41:08.058Z,1.50
2017-12-21T16:43:35.693Z,1.60
2017-12-21T16:46:03.400Z,1.60
2017-12-21T16:48:31.019Z,1.70
2017-12-21T16:50:58.690Z,1.70
2017-12-21T16:53:26.367Z,1.80
2017-12-21T16:58:33.155Z,1.70
2017-12-21T17:01:00.775Z,1.70
2017-12-21T17:03:28.400Z,1.70
2017-12-21T17:08:23.705Z,1.90
2017-12-21T17:10:51.320Z,1.90
2017-12-21T17:13:19.001Z,2.00
2017-12-21T17:15:46.627Z,2.10
2017-12-21T17:18:14.251Z,2.10
2017-12-21T17:20:41.950Z,2.20
2017-12-21T17:23:09.568Z,2.20
2017-12-21T17:25:37.194Z,2.10
2017-12-21T17:28:04.877Z,2.00
2017-12-21T17:30:32.545Z,2.00
2017-12-21T17:33:00.126Z,2.10
2017-12-21T17:35:27.800Z,2.10
2017-12-21T17:37:55.427Z,2.10
2017-12-21T17:40:23.055Z,2.10
2017-12-21T17:42:50.736Z,2.10
2017-12-21T17:45:18.355Z,1.90
2017-12-21T17:47:45.984Z,1.70
2017-12-21T17:52:41.316Z,1.80
2017-12-21T17:55:08.973Z,1.50
2017-12-21T17:57:36.657Z,1.50
2017-12-21T18:00:04.276Z,1.30
2017-12-21T18:02:32.846Z,1.30
2017-12-21T18:05:00.549Z,1.30
2017-12-21T18:07:29.110Z,1.30
2017-12-21T18:09:56.735Z,1.50
2017-12-21T18:15:06.680Z,1.70
2017-12-21T18:17:35.836Z,1.90
2017-12-21T18:20:03.464Z,2.00
2017-12-21T18:22:31.088Z,2.10
2017-12-21T18:24:58.778Z,1.90
2017-12-21T18:27:26.405Z,2.00
2017-12-21T18:29:54.032Z,2.00
2017-12-21T18:32:21.711Z,1.90
2017-12-21T18:34:49.336Z,2.00
2017-12-21T18:37:16.964Z,2.00
2017-12-21T18:39:44.644Z,1.80
2017-12-21T18:42:13.205Z,1.80
2017-12-21T18:44:40.839Z,1.80
2017-12-21T18:47:08.527Z,1.80
2017-12-21T18:49:36.149Z,1.80
2017-12-21T18:52:03.794Z,1.80
2017-12-21T18:56:59.106Z,1.80
2017-12-21T18:59:26.744Z,1.80
2017-12-21T19:01:54.436Z,1.80
2017-12-21T19:04:22.077Z,1.80
2017-12-21T19:06:50.282Z,1.80
2017-12-21T19:09:17.963Z,1.70
2017-12-21T19:11:45.608Z,1.60
2017-12-21T19:14:13.248Z,1.60
2017-12-21T19:16:40.929Z,1.50
2017-12-21T19:19:08.556Z,1.50
2017-12-21T19:21:36.200Z,1.60
2017-12-21T19:24:04.307Z,1.50
2017-12-21T19:26:31.934Z,1.50
2017-12-21T19:28:59.556Z,1.50
2017-12-21T19:31:27.249Z,1.50
2017-12-21T19:33:54.875Z,1.40
2017-12-21T19:36:22.507Z,1.40
2017-12-21T19:41:29.287Z,1.40
2017-12-21T19:43:56.972Z,1.50
2017-12-21T19:46:24.604Z,1.40
2017-12-21T19:48:52.234Z,1.40
2017-12-21T19:51:19.917Z,1.50
2017-12-21T19:53:47.551Z,1.50
2017-12-21T19:56:15.182Z,1.40
2017-12-21T19:58:42.866Z,1.50
2017-12-21T20:01:10.502Z,1.60
2017-12-21T20:03:38.433Z,1.40
2017-12-21T20:06:06.075Z,1.20
2017-12-21T20:08:33.956Z,1.30
2017-12-21T20:11:01.544Z,1.40
2017-12-21T20:13:29.244Z,1.40
2017-12-21T20:15:56.868Z,1.50
2017-12-21T20:18:24.488Z,1.50
2017-12-21T20:20:52.197Z,1.50
2017-12-21T20:23:19.837Z,1.60
2017-12-21T20:25:49.412Z,1.50
2017-12-21T20:28:17.579Z,1.50
2017-12-21T20:30:45.194Z,1.30
2017-12-21T20:33:13.017Z,1.10
2017-12-21T20:35:40.574Z,1.20
2017-12-21T20:40:47.014Z,1.40
2017-12-21T20:43:14.693Z,1.60
2017-12-21T20:45:42.326Z,1.60
2017-12-21T20:48:10.021Z,1.50
2017-12-21T20:50:37.636Z,1.50
2017-12-21T20:53:05.257Z,1.40
2017-12-21T20:55:32.942Z,1.60
2017-12-21T20:58:00.699Z,1.60
2017-12-21T21:00:28.772Z,1.40
2017-12-21T21:02:56.410Z,1.30
2017-12-21T21:07:51.700Z,1.40
2017-12-21T21:10:19.397Z,1.40
2017-12-21T21:12:47.019Z,1.00
2017-12-21T21:15:14.656Z,1.10
2017-12-21T21:17:42.773Z,1.30
2017-12-21T21:20:10.335Z,1.20
2017-12-21T21:22:38.201Z,1.30
2017-12-21T21:25:05.851Z,1.10
2017-12-21T21:27:33.691Z,1.10
2017-12-21T21:30:01.402Z,1.20
2017-12-21T21:32:29.045Z,1.10
2017-12-21T21:34:56.661Z,1.20
2017-12-21T21:37:24.280Z,1.30
2017-12-21T21:39:51.999Z,1.30
2017-12-21T21:42:19.629Z,1.20
2017-12-21T21:44:47.261Z,1.20
2017-12-21T21:47:14.951Z,1.10
2017-12-21T21:52:25.314Z,1.20
2017-12-21T21:54:52.941Z,1.30
2017-12-21T21:57:20.576Z,1.50
2017-12-21T21:59:48.256Z,1.50
2017-12-21T22:02:15.877Z,1.30
2017-12-21T22:04:43.499Z,1.30
2017-12-21T22:07:11.179Z,1.40
2017-12-21T22:09:38.819Z,1.50
2017-12-21T22:12:06.441Z,1.40
2017-12-21T22:14:34.157Z,1.40
2017-12-21T22:17:02.377Z,1.50
2017-12-21T22:19:30.044Z,1.50
2017-12-21T22:21:57.791Z,1.80
2017-12-21T22:24:25.417Z,2.70
2017-12-21T22:26:53.055Z,2.50
2017-12-21T22:29:20.734Z,2.20
2017-12-21T22:31:48.380Z,2.30
2017-12-21T22:34:15.987Z,2.00
2017-12-21T22:36:43.818Z,2.00
2017-12-21T22:39:11.458Z,1.90
2017-12-21T22:41:39.096Z,1.70
2017-12-21T22:44:06.781Z,1.60
2017-12-21T22:46:34.406Z,1.50
2017-12-21T22:49:02.023Z,1.50
2017-12-21T22:51:29.726Z,1.50
2017-12-21T22:56:41.865Z,1.50
2017-12-21T22:59:09.557Z,1.60
2017-12-21T23:01:37.202Z,1.80
2017-12-21T23:04:04.942Z,1.80
2017-12-21T23:06:32.546Z,1.80
2017-12-21T23:09:00.192Z,1.60
2017-12-21T23:11:27.870Z,1.70
2017-12-21T23:13:55.491Z,1.50
2017-12-21T23:16:23.115Z,1.60
2017-12-21T23:18:50.796Z,1.60
2017-12-21T23:21:18.429Z,1.70
2017-12-21T23:23:46.105Z,1.70
2017-12-21T23:26:15.533Z,1.70
2017-12-21T23:28:43.156Z,1.80
2017-12-21T23:31:10.808Z,1.70
2017-12-21T23:33:38.494Z,1.70
2017-12-21T23:36:06.113Z,1.60
2017-12-21T23:38:33.787Z,1.70
2017-12-21T23:41:01.467Z,1.70
2017-12-21T23:43:29.091Z,1.70
2017-12-21T23:45:56.718Z,1.60
2017-12-21T23:48:24.396Z,1.70
2017-12-21T23:50:52.019Z,1.70
2017-12-21T23:53:19.649Z,1.70
2017-12-21T23:55:47.328Z,1.70
2017-12-21T23:58:14.959Z,1.70
